Página principal
METAR-TAF:

METAR-TAF

Aeroportos :

Fergana, Uzbequistão

latitude: 40-21-32N, longitude: 071-44-42E, altura: 625 m

Observação actual do tempo

O boletim foi feito há 25 minutos, às 11:30 UTC
Vento 4 kt de nor-noroeste, variando entre oes-noroeste e norte
Temperatura 8°C
Humidade 57%
Pressão 1024 hPa
Visibilidade: 2700 m
bruma

METAR: UTFF 181130Z 33004KT 290V350 2700 HZ NSC 08/M00 Q1024 R18/CLRD70

Hora: 16:55 (11:55 UTC)

Previsão

O boletim foi feito há 2 horas e 55 minutos, às 09:00 UTC
Previsão válida de 18 às 10 UTC a 18 às 19 UTC
Vento 10 kt de nor-noroeste
Visibilidade: 3100 m
bruma
Temporariamente
de 18 às 10 UTC a 18 às 19 UTC
Vento 12 kt de oeste
Visibilidade: 2500 m
Poucas nuvensa uma altura de 6000 ft, Cumulonimbus.
neblina

TAF: UTFF 180900Z 1810/1819 34010KT 3100 HZ NSC TEMPO 1810/1819 28012KT 2500 BR FEW060CB

Observações e previsões do tempo de mais de 4000 aeroportos (mensagens METAR e TAF).

As estações disponíveis são os pontos amarelos e vermelhos sobre o mapa.

Mova o rato sobre o mapa para ver o nome da estação.

Depois clique no ponto para visualizar as observações e previsões meteorológicas.

Para alterar o mapa : clique nos botões verdes com uma cruz preta para aumentar o zoom; no botão verde com uma pitada de zoom; ou nas setas verdes para mapas adjacentes.


METAR-TAF: